sensor_id;sensor_type;location;lat;lon;timestamp;pressure;altitude;pressure_sealevel;temperature;humidity
49102;BME280;34913;47.520;19.186;2023-02-21T00:00:10;99800.84;;;9.26;67.72
49102;BME280;34913;47.520;19.186;2023-02-21T00:02:54;99806.16;;;9.26;67.81
49102;BME280;34913;47.520;19.186;2023-02-21T00:05:38;99807.47;;;9.20;68.36
49102;BME280;34913;47.520;19.186;2023-02-21T00:08:22;99798.94;;;9.06;68.82
49102;BME280;34913;47.520;19.186;2023-02-21T00:11:06;99791.72;;;9.08;68.64
49102;BME280;34913;47.520;19.186;2023-02-21T00:13:50;99794.47;;;9.06;68.82
49102;BME280;34913;47.520;19.186;2023-02-21T00:16:33;99794.00;;;9.12;68.22
49102;BME280;34913;47.520;19.186;2023-02-21T00:19:17;99791.13;;;9.04;67.27
49102;BME280;34913;47.520;19.186;2023-02-21T00:22:01;99783.16;;;9.15;66.65
49102;BME280;34913;47.520;19.186;2023-02-21T00:24:45;99789.16;;;9.29;65.52
49102;BME280;34913;47.520;19.186;2023-02-21T00:27:29;99780.72;;;9.35;65.19
49102;BME280;34913;47.520;19.186;2023-02-21T00:30:14;99789.13;;;9.40;64.76
49102;BME280;34913;47.520;19.186;2023-02-21T00:32:58;99783.94;;;9.38;64.54
49102;BME280;34913;47.520;19.186;2023-02-21T00:35:42;99786.47;;;9.40;64.13
49102;BME280;34913;47.520;19.186;2023-02-21T00:38:26;99791.78;;;9.40;63.86
49102;BME280;34913;47.520;19.186;2023-02-21T00:41:10;99794.69;;;9.37;63.87
49102;BME280;34913;47.520;19.186;2023-02-21T00:43:54;99797.81;;;9.31;63.30
49102;BME280;34913;47.520;19.186;2023-02-21T00:46:38;99797.53;;;9.45;62.54
49102;BME280;34913;47.520;19.186;2023-02-21T00:49:22;99793.56;;;9.39;62.13
49102;BME280;34913;47.520;19.186;2023-02-21T00:52:06;99793.72;;;9.38;62.07
49102;BME280;34913;47.520;19.186;2023-02-21T00:54:50;99799.69;;;9.51;61.15
49102;BME280;34913;47.520;19.186;2023-02-21T00:57:34;99784.16;;;9.46;61.73
49102;BME280;34913;47.520;19.186;2023-02-21T01:00:23;99792.03;;;9.48;61.43
49102;BME280;34913;47.520;19.186;2023-02-21T01:03:07;99784.78;;;9.50;61.47
49102;BME280;34913;47.520;19.186;2023-02-21T01:05:52;99778.53;;;9.40;61.26
49102;BME280;34913;47.520;19.186;2023-02-21T01:08:40;99788.31;;;9.28;61.52
49102;BME280;34913;47.520;19.186;2023-02-21T01:11:24;99782.19;;;9.28;61.80
49102;BME280;34913;47.520;19.186;2023-02-21T01:14:08;99772.56;;;9.27;61.52
49102;BME280;34913;47.520;19.186;2023-02-21T01:16:52;99776.63;;;9.31;61.28
49102;BME280;34913;47.520;19.186;2023-02-21T01:19:35;99772.78;;;9.35;60.83
49102;BME280;34913;47.520;19.186;2023-02-21T01:22:20;99774.72;;;9.33;60.83
49102;BME280;34913;47.520;19.186;2023-02-21T01:25:05;99782.44;;;9.25;60.91
49102;BME280;34913;47.520;19.186;2023-02-21T01:27:49;99777.97;;;9.25;61.48
49102;BME280;34913;47.520;19.186;2023-02-21T01:30:33;99777.00;;;9.26;61.24
49102;BME280;34913;47.520;19.186;2023-02-21T01:33:17;99782.78;;;9.20;61.30
49102;BME280;34913;47.520;19.186;2023-02-21T01:36:04;99774.38;;;9.26;61.29
49102;BME280;34913;47.520;19.186;2023-02-21T01:38:47;99773.34;;;9.38;60.71
49102;BME280;34913;47.520;19.186;2023-02-21T01:41:31;99768.78;;;9.40;60.29
49102;BME280;34913;47.520;19.186;2023-02-21T01:44:39;99756.19;;;9.33;60.44
49102;BME280;34913;47.520;19.186;2023-02-21T01:47:24;99750.03;;;9.32;60.10
49102;BME280;34913;47.520;19.186;2023-02-21T01:53:06;99751.72;;;9.22;60.86
49102;BME280;34913;47.520;19.186;2023-02-21T01:55:53;99751.59;;;9.35;60.57
49102;BME280;34913;47.520;19.186;2023-02-21T01:58:37;99758.44;;;9.37;60.26
49102;BME280;34913;47.520;19.186;2023-02-21T02:01:32;99762.31;;;9.33;60.38
49102;BME280;34913;47.520;19.186;2023-02-21T02:04:17;99747.72;;;9.39;60.24
49102;BME280;34913;47.520;19.186;2023-02-21T02:07:01;99750.13;;;9.31;60.55
49102;BME280;34913;47.520;19.186;2023-02-21T02:09:45;99753.53;;;9.21;60.98
49102;BME280;34913;47.520;19.186;2023-02-21T02:26:05;99738.31;;;8.91;61.71
49102;BME280;34913;47.520;19.186;2023-02-21T02:28:59;99733.63;;;8.95;61.66
49102;BME280;34913;47.520;19.186;2023-02-21T02:32:06;99738.69;;;8.76;62.47
49102;BME280;34913;47.520;19.186;2023-02-21T02:47:37;99728.56;;;9.03;61.55
49102;BME280;34913;47.520;19.186;2023-02-21T02:50:05;99720.63;;;9.03;61.39
49102;BME280;34913;47.520;19.186;2023-02-21T02:52:34;99713.06;;;8.87;61.81
49102;BME280;34913;47.520;19.186;2023-02-21T02:55:21;99709.66;;;8.97;61.66
49102;BME280;34913;47.520;19.186;2023-02-21T02:57:48;99708.34;;;9.02;61.45
49102;BME280;34913;47.520;19.186;2023-02-21T03:00:16;99712.06;;;9.00;61.63
49102;BME280;34913;47.520;19.186;2023-02-21T03:02:59;99705.69;;;9.02;61.41
49102;BME280;34913;47.520;19.186;2023-02-21T03:06:32;99706.75;;;9.11;61.38
49102;BME280;34913;47.520;19.186;2023-02-21T03:11:17;99720.22;;;9.08;61.23
49102;BME280;34913;47.520;19.186;2023-02-21T03:13:54;99720.00;;;9.11;61.37
49102;BME280;34913;47.520;19.186;2023-02-21T03:16:28;99725.91;;;9.03;61.72
49102;BME280;34913;47.520;19.186;2023-02-21T03:19:03;99717.25;;;9.01;61.79
49102;BME280;34913;47.520;19.186;2023-02-21T03:21:38;99723.13;;;9.05;61.68
49102;BME280;34913;47.520;19.186;2023-02-21T03:24:07;99725.16;;;9.12;61.56
49102;BME280;34913;47.520;19.186;2023-02-21T03:26:36;99724.44;;;9.10;61.60
49102;BME280;34913;47.520;19.186;2023-02-21T03:29:03;99735.28;;;9.07;62.03
49102;BME280;34913;47.520;19.186;2023-02-21T03:31:35;99729.41;;;8.92;62.75
49102;BME280;34913;47.520;19.186;2023-02-21T03:34:02;99726.03;;;8.90;62.47
49102;BME280;34913;47.520;19.186;2023-02-21T03:36:28;99735.31;;;8.96;62.70
49102;BME280;34913;47.520;19.186;2023-02-21T03:38:53;99726.16;;;8.89;62.82
49102;BME280;34913;47.520;19.186;2023-02-21T03:41:19;99726.88;;;8.91;62.79
49102;BME280;34913;47.520;19.186;2023-02-21T03:43:44;99730.28;;;8.93;63.02
49102;BME280;34913;47.520;19.186;2023-02-21T03:46:10;99724.13;;;8.81;63.42
49102;BME280;34913;47.520;19.186;2023-02-21T03:48:35;99728.81;;;8.89;63.48
49102;BME280;34913;47.520;19.186;2023-02-21T03:51:01;99728.47;;;8.93;63.24
49102;BME280;34913;47.520;19.186;2023-02-21T03:53:26;99732.16;;;9.02;63.26
49102;BME280;34913;47.520;19.186;2023-02-21T03:55:52;99734.06;;;9.00;62.80
49102;BME280;34913;47.520;19.186;2023-02-21T03:58:17;99737.34;;;8.92;63.43
49102;BME280;34913;47.520;19.186;2023-02-21T04:00:43;99729.03;;;8.97;63.15
49102;BME280;34913;47.520;19.186;2023-02-21T04:03:08;99728.09;;;8.87;63.16
49102;BME280;34913;47.520;19.186;2023-02-21T04:05:35;99726.16;;;8.89;63.42
49102;BME280;34913;47.520;19.186;2023-02-21T04:08:00;99721.09;;;8.97;63.38
49102;BME280;34913;47.520;19.186;2023-02-21T04:10:25;99729.78;;;8.77;63.95
49102;BME280;34913;47.520;19.186;2023-02-21T04:12:51;99730.75;;;8.87;63.53
49102;BME280;34913;47.520;19.186;2023-02-21T04:15:16;99734.47;;;8.84;63.68
49102;BME280;34913;47.520;19.186;2023-02-21T04:17:42;99735.44;;;8.94;63.28
49102;BME280;34913;47.520;19.186;2023-02-21T04:20:07;99733.00;;;8.91;63.53
49102;BME280;34913;47.520;19.186;2023-02-21T04:22:33;99725.31;;;8.88;63.34
49102;BME280;34913;47.520;19.186;2023-02-21T04:24:58;99739.06;;;8.93;63.33
49102;BME280;34913;47.520;19.186;2023-02-21T04:27:24;99731.69;;;8.97;63.21
49102;BME280;34913;47.520;19.186;2023-02-21T04:29:51;99727.81;;;9.12;62.69
49102;BME280;34913;47.520;19.186;2023-02-21T04:32:16;99726.63;;;9.05;63.00
49102;BME280;34913;47.520;19.186;2023-02-21T04:34:41;99721.81;;;9.10;62.57
49102;BME280;34913;47.520;19.186;2023-02-21T04:37:07;99723.72;;;9.08;62.73
49102;BME280;34913;47.520;19.186;2023-02-21T04:39:32;99714.59;;;9.01;63.27
49102;BME280;34913;47.520;19.186;2023-02-21T04:41:58;99709.63;;;9.08;62.82
49102;BME280;34913;47.520;19.186;2023-02-21T04:44:23;99707.13;;;9.06;62.75
49102;BME280;34913;47.520;19.186;2023-02-21T04:46:49;99707.72;;;8.99;63.25
49102;BME280;34913;47.520;19.186;2023-02-21T04:49:14;99712.53;;;9.05;63.29
49102;BME280;34913;47.520;19.186;2023-02-21T04:51:40;99714.00;;;8.98;63.26
49102;BME280;34913;47.520;19.186;2023-02-21T04:54:06;99719.66;;;9.04;63.01
49102;BME280;34913;47.520;19.186;2023-02-21T04:56:32;99715.06;;;9.06;63.08
49102;BME280;34913;47.520;19.186;2023-02-21T04:58:57;99725.28;;;9.11;62.87
49102;BME280;34913;47.520;19.186;2023-02-21T05:01:26;99731.06;;;9.05;63.21
49102;BME280;34913;47.520;19.186;2023-02-21T05:03:52;99732.41;;;9.10;63.16
49102;BME280;34913;47.520;19.186;2023-02-21T05:06:21;99717.47;;;9.09;63.12
49102;BME280;34913;47.520;19.186;2023-02-21T05:08:47;99719.50;;;9.06;63.41
49102;BME280;34913;47.520;19.186;2023-02-21T05:11:13;99715.94;;;8.95;63.84
49102;BME280;34913;47.520;19.186;2023-02-21T05:13:38;99717.47;;;9.09;63.24
49102;BME280;34913;47.520;19.186;2023-02-21T05:16:04;99718.31;;;9.10;63.26
49102;BME280;34913;47.520;19.186;2023-02-21T05:18:29;99715.81;;;8.97;63.76
49102;BME280;34913;47.520;19.186;2023-02-21T05:20:55;99706.75;;;9.00;63.73
49102;BME280;34913;47.520;19.186;2023-02-21T05:23:20;99707.38;;;9.03;63.52
49102;BME280;34913;47.520;19.186;2023-02-21T05:26:10;99714.84;;;8.98;63.59
49102;BME280;34913;47.520;19.186;2023-02-21T05:28:37;99703.63;;;9.06;63.74
49102;BME280;34913;47.520;19.186;2023-02-21T05:31:03;99711.69;;;9.04;63.81
49102;BME280;34913;47.520;19.186;2023-02-21T05:33:29;99708.09;;;9.05;63.59
49102;BME280;34913;47.520;19.186;2023-02-21T05:35:55;99698.69;;;9.12;63.22
49102;BME280;34913;47.520;19.186;2023-02-21T05:38:22;99702.38;;;9.21;63.30
49102;BME280;34913;47.520;19.186;2023-02-21T05:40:48;99701.69;;;9.19;63.44
49102;BME280;34913;47.520;19.186;2023-02-21T05:43:13;99693.72;;;9.19;63.17
49102;BME280;34913;47.520;19.186;2023-02-21T05:45:40;99690.25;;;9.18;63.14
49102;BME280;34913;47.520;19.186;2023-02-21T05:48:05;99691.38;;;9.05;63.92
49102;BME280;34913;47.520;19.186;2023-02-21T05:50:31;99693.25;;;9.14;63.67
49102;BME280;34913;47.520;19.186;2023-02-21T05:52:57;99687.63;;;9.07;64.25
49102;BME280;34913;47.520;19.186;2023-02-21T05:55:23;99699.66;;;9.11;64.32
49102;BME280;34913;47.520;19.186;2023-02-21T05:57:48;99692.91;;;9.07;63.96
49102;BME280;34913;47.520;19.186;2023-02-21T06:00:20;99704.13;;;9.11;64.08
49102;BME280;34913;47.520;19.186;2023-02-21T06:02:48;99707.81;;;9.19;63.77
49102;BME280;34913;47.520;19.186;2023-02-21T06:05:15;99708.69;;;9.09;64.35
49102;BME280;34913;47.520;19.186;2023-02-21T06:07:40;99702.66;;;9.07;64.36
49102;BME280;34913;47.520;19.186;2023-02-21T06:10:06;99714.09;;;9.07;64.25
49102;BME280;34913;47.520;19.186;2023-02-21T06:12:32;99713.59;;;9.13;64.09
49102;BME280;34913;47.520;19.186;2023-02-21T06:14:57;99705.53;;;9.15;63.94
49102;BME280;34913;47.520;19.186;2023-02-21T06:17:23;99704.41;;;9.29;63.31
49102;BME280;34913;47.520;19.186;2023-02-21T06:19:48;99714.28;;;9.27;63.64
49102;BME280;34913;47.520;19.186;2023-02-21T06:22:14;99715.75;;;9.19;63.87
49102;BME280;34913;47.520;19.186;2023-02-21T06:24:39;99711.94;;;9.12;64.11
49102;BME280;34913;47.520;19.186;2023-02-21T06:27:05;99724.06;;;9.26;63.64
49102;BME280;34913;47.520;19.186;2023-02-21T06:29:30;99725.25;;;9.22;64.02
49102;BME280;34913;47.520;19.186;2023-02-21T06:31:57;99728.94;;;9.31;63.65
49102;BME280;34913;47.520;19.186;2023-02-21T06:34:23;99733.50;;;9.40;63.46
49102;BME280;34913;47.520;19.186;2023-02-21T06:36:52;99735.44;;;9.38;63.50
49102;BME280;34913;47.520;19.186;2023-02-21T06:39:18;99732.88;;;9.47;63.34
49102;BME280;34913;47.520;19.186;2023-02-21T06:41:43;99729.84;;;9.52;63.36
49102;BME280;34913;47.520;19.186;2023-02-21T06:44:10;99725.72;;;9.59;62.52
49102;BME280;34913;47.520;19.186;2023-02-21T06:46:35;99746.22;;;9.57;63.07
49102;BME280;34913;47.520;19.186;2023-02-21T06:49:03;99737.16;;;9.60;62.75
49102;BME280;34913;47.520;19.186;2023-02-21T06:51:33;99740.88;;;9.68;62.64
49102;BME280;34913;47.520;19.186;2023-02-21T06:53:58;99752.13;;;9.82;62.59
49102;BME280;34913;47.520;19.186;2023-02-21T06:56:24;99754.19;;;9.78;62.66
49102;BME280;34913;47.520;19.186;2023-02-21T06:58:51;99757.63;;;9.90;62.19
49102;BME280;34913;47.520;19.186;2023-02-21T07:01:16;99749.19;;;9.96;62.13
49102;BME280;34913;47.520;19.186;2023-02-21T07:03:42;99750.22;;;10.04;61.56
49102;BME280;34913;47.520;19.186;2023-02-21T07:06:08;99751.47;;;10.10;61.25
49102;BME280;34913;47.520;19.186;2023-02-21T07:08:34;99756.97;;;10.29;61.20
49102;BME280;34913;47.520;19.186;2023-02-21T07:10:59;99758.50;;;10.32;60.53
49102;BME280;34913;47.520;19.186;2023-02-21T07:13:25;99760.63;;;10.38;60.70
49102;BME280;34913;47.520;19.186;2023-02-21T07:15:50;99765.00;;;10.49;60.66
49102;BME280;34913;47.520;19.186;2023-02-21T07:18:15;99765.50;;;10.63;59.75
49102;BME280;34913;47.520;19.186;2023-02-21T07:20:41;99762.84;;;10.63;59.97
49102;BME280;34913;47.520;19.186;2023-02-21T07:23:06;99768.75;;;10.67;59.96
49102;BME280;34913;47.520;19.186;2023-02-21T07:25:32;99764.69;;;10.73;60.13
49102;BME280;34913;47.520;19.186;2023-02-21T07:27:57;99771.44;;;10.77;59.95
49102;BME280;34913;47.520;19.186;2023-02-21T07:30:23;99775.94;;;10.86;59.51
49102;BME280;34913;47.520;19.186;2023-02-21T07:32:48;99777.66;;;10.97;59.29
49102;BME280;34913;47.520;19.186;2023-02-21T07:35:13;99785.00;;;11.14;59.00
49102;BME280;34913;47.520;19.186;2023-02-21T07:37:39;99786.00;;;11.23;59.37
49102;BME280;34913;47.520;19.186;2023-02-21T07:40:05;99783.22;;;11.34;59.65
49102;BME280;34913;47.520;19.186;2023-02-21T07:42:33;99778.78;;;11.54;59.63
49102;BME280;34913;47.520;19.186;2023-02-21T07:44:59;99794.03;;;11.61;58.42
49102;BME280;34913;47.520;19.186;2023-02-21T07:47:26;99778.34;;;11.58;57.47
49102;BME280;34913;47.520;19.186;2023-02-21T07:49:52;99775.84;;;11.66;57.07
49102;BME280;34913;47.520;19.186;2023-02-21T07:52:19;99775.69;;;11.68;57.54
49102;BME280;34913;47.520;19.186;2023-02-21T07:54:45;99776.97;;;11.73;56.66
49102;BME280;34913;47.520;19.186;2023-02-21T07:57:11;99770.16;;;11.81;57.53
49102;BME280;34913;47.520;19.186;2023-02-21T07:59:36;99779.22;;;11.97;57.45
49102;BME280;34913;47.520;19.186;2023-02-21T08:02:03;99779.53;;;11.94;55.92
49102;BME280;34913;47.520;19.186;2023-02-21T08:04:28;99773.22;;;11.95;56.49
49102;BME280;34913;47.520;19.186;2023-02-21T08:07:01;99772.53;;;12.03;55.57
49102;BME280;34913;47.520;19.186;2023-02-21T08:09:27;99769.03;;;12.02;55.19
49102;BME280;34913;47.520;19.186;2023-02-21T08:11:52;99756.94;;;12.08;54.81
49102;BME280;34913;47.520;19.186;2023-02-21T08:14:18;99752.50;;;12.09;55.32
49102;BME280;34913;47.520;19.186;2023-02-21T08:16:43;99754.16;;;12.00;55.51
49102;BME280;34913;47.520;19.186;2023-02-21T08:19:09;99754.28;;;12.08;55.31
49102;BME280;34913;47.520;19.186;2023-02-21T08:21:34;99744.50;;;12.18;54.60
49102;BME280;34913;47.520;19.186;2023-02-21T08:24:00;99762.81;;;12.21;54.88
49102;BME280;34913;47.520;19.186;2023-02-21T08:26:25;99758.88;;;12.35;54.36
49102;BME280;34913;47.520;19.186;2023-02-21T08:28:51;99756.22;;;12.35;54.44
49102;BME280;34913;47.520;19.186;2023-02-21T08:31:16;99754.50;;;12.44;54.29
49102;BME280;34913;47.520;19.186;2023-02-21T08:33:43;99764.84;;;12.47;54.56
49102;BME280;34913;47.520;19.186;2023-02-21T08:36:08;99754.22;;;12.47;54.58
49102;BME280;34913;47.520;19.186;2023-02-21T08:38:34;99759.00;;;12.43;54.68
49102;BME280;34913;47.520;19.186;2023-02-21T08:40:59;99756.66;;;12.68;53.71
49102;BME280;34913;47.520;19.186;2023-02-21T08:43:25;99746.44;;;12.73;53.97
49102;BME280;34913;47.520;19.186;2023-02-21T08:45:51;99748.38;;;12.71;54.44
49102;BME280;34913;47.520;19.186;2023-02-21T08:48:17;99744.19;;;12.68;54.24
49102;BME280;34913;47.520;19.186;2023-02-21T08:50:42;99753.31;;;12.66;54.28
49102;BME280;34913;47.520;19.186;2023-02-21T08:53:11;99748.00;;;12.66;55.16
49102;BME280;34913;47.520;19.186;2023-02-21T08:55:37;99750.66;;;12.66;55.17
49102;BME280;34913;47.520;19.186;2023-02-21T08:58:02;99749.44;;;12.88;54.18
49102;BME280;34913;47.520;19.186;2023-02-21T09:00:28;99756.41;;;12.98;54.08
49102;BME280;34913;47.520;19.186;2023-02-21T09:02:57;99755.84;;;12.95;54.42
49102;BME280;34913;47.520;19.186;2023-02-21T09:05:28;99746.69;;;13.07;54.27
49102;BME280;34913;47.520;19.186;2023-02-21T09:07:55;99755.34;;;13.09;54.08
49102;BME280;34913;47.520;19.186;2023-02-21T09:10:29;99748.28;;;13.18;53.93
49102;BME280;34913;47.520;19.186;2023-02-21T09:12:55;99752.91;;;13.25;53.96
49102;BME280;34913;47.520;19.186;2023-02-21T09:15:21;99749.56;;;13.41;54.01
49102;BME280;34913;47.520;19.186;2023-02-21T09:17:47;99760.31;;;13.49;54.08
49102;BME280;34913;47.520;19.186;2023-02-21T09:20:17;99766.44;;;13.59;53.91
49102;BME280;34913;47.520;19.186;2023-02-21T09:22:43;99757.13;;;13.63;53.75
49102;BME280;34913;47.520;19.186;2023-02-21T09:25:10;99757.22;;;13.72;53.41
49102;BME280;34913;47.520;19.186;2023-02-21T09:27:38;99750.78;;;13.82;53.00
49102;BME280;34913;47.520;19.186;2023-02-21T09:30:14;99752.25;;;13.94;52.69
49102;BME280;34913;47.520;19.186;2023-02-21T09:32:40;99759.56;;;13.92;52.52
49102;BME280;34913;47.520;19.186;2023-02-21T09:35:07;99766.19;;;13.88;52.97
49102;BME280;34913;47.520;19.186;2023-02-21T09:37:36;99753.03;;;13.69;53.58
49102;BME280;34913;47.520;19.186;2023-02-21T09:40:02;99757.84;;;13.83;52.85
49102;BME280;34913;47.520;19.186;2023-02-21T09:42:30;99765.13;;;13.81;53.48
49102;BME280;34913;47.520;19.186;2023-02-21T09:44:56;99756.97;;;14.01;52.48
49102;BME280;34913;47.520;19.186;2023-02-21T09:47:29;99766.66;;;14.02;52.69
49102;BME280;34913;47.520;19.186;2023-02-21T09:50:05;99761.53;;;14.08;52.86
49102;BME280;34913;47.520;19.186;2023-02-21T09:52:37;99762.72;;;14.32;52.25
49102;BME280;34913;47.520;19.186;2023-02-21T09:57:37;99760.25;;;14.38;52.27
49102;BME280;34913;47.520;19.186;2023-02-21T10:00:16;99760.56;;;14.61;52.67
49102;BME280;34913;47.520;19.186;2023-02-21T10:05:49;99766.63;;;14.63;51.90
49102;BME280;34913;47.520;19.186;2023-02-21T10:08:21;99760.03;;;14.84;51.78
49102;BME280;34913;47.520;19.186;2023-02-21T10:10:53;99759.72;;;14.87;51.86
49102;BME280;34913;47.520;19.186;2023-02-21T10:21:32;99755.34;;;14.77;51.68
49102;BME280;34913;47.520;19.186;2023-02-21T10:23:59;99767.78;;;14.69;52.55
49102;BME280;34913;47.520;19.186;2023-02-21T10:26:31;99768.59;;;14.61;52.80
49102;BME280;34913;47.520;19.186;2023-02-21T10:28:59;99763.34;;;14.51;52.23
49102;BME280;34913;47.520;19.186;2023-02-21T10:31:35;99738.66;;;14.49;52.71
49102;BME280;34913;47.520;19.186;2023-02-21T10:34:04;99752.50;;;14.27;53.43
49102;BME280;34913;47.520;19.186;2023-02-21T10:36:32;99741.31;;;14.23;53.75
49102;BME280;34913;47.520;19.186;2023-02-21T10:39:09;99741.91;;;14.17;54.08
49102;BME280;34913;47.520;19.186;2023-02-21T10:41:39;99744.31;;;14.29;53.96
49102;BME280;34913;47.520;19.186;2023-02-21T10:44:13;99754.69;;;14.49;53.56
49102;BME280;34913;47.520;19.186;2023-02-21T10:46:46;99750.72;;;14.54;53.65
49102;BME280;34913;47.520;19.186;2023-02-21T10:49:21;99750.34;;;14.48;53.20
49102;BME280;34913;47.520;19.186;2023-02-21T10:52:04;99745.88;;;14.57;52.96
49102;BME280;34913;47.520;19.186;2023-02-21T10:54:29;99738.81;;;14.48;53.25
49102;BME280;34913;47.520;19.186;2023-02-21T10:56:55;99734.03;;;14.60;53.67
49102;BME280;34913;47.520;19.186;2023-02-21T10:59:26;99740.28;;;14.76;53.13
49102;BME280;34913;47.520;19.186;2023-02-21T11:01:53;99741.13;;;14.77;53.17
49102;BME280;34913;47.520;19.186;2023-02-21T11:06:46;99722.38;;;14.69;52.88
49102;BME280;34913;47.520;19.186;2023-02-21T11:09:42;99727.75;;;14.77;53.21
49102;BME280;34913;47.520;19.186;2023-02-21T11:12:22;99717.31;;;14.92;52.75
49102;BME280;34913;47.520;19.186;2023-02-21T11:17:23;99732.22;;;15.02;52.53
49102;BME280;34913;47.520;19.186;2023-02-21T11:20:03;99718.06;;;15.10;51.94
49102;BME280;34913;47.520;19.186;2023-02-21T11:22:38;99718.09;;;15.18;51.59
49102;BME280;34913;47.520;19.186;2023-02-21T11:25:17;99726.38;;;15.07;52.09
49102;BME280;34913;47.520;19.186;2023-02-21T11:28:06;99712.09;;;14.82;53.30
49102;BME280;34913;47.520;19.186;2023-02-21T11:33:25;99721.56;;;15.11;52.37
49102;BME280;34913;47.520;19.186;2023-02-21T11:35:53;99725.47;;;15.32;52.29
49102;BME280;34913;47.520;19.186;2023-02-21T11:38:34;99734.84;;;15.53;51.64
49102;BME280;34913;47.520;19.186;2023-02-21T11:41:02;99720.81;;;15.51;51.36
49102;BME280;34913;47.520;19.186;2023-02-21T11:43:31;99734.44;;;15.23;52.90
49102;BME280;34913;47.520;19.186;2023-02-21T11:49:07;99724.59;;;15.32;51.43
49102;BME280;34913;47.520;19.186;2023-02-21T11:54:07;99741.78;;;15.13;52.78
49102;BME280;34913;47.520;19.186;2023-02-21T11:56:50;99727.25;;;15.16;52.95
49102;BME280;34913;47.520;19.186;2023-02-21T12:24:49;99720.31;;;15.55;52.10
49102;BME280;34913;47.520;19.186;2023-02-21T12:33:02;99734.16;;;15.34;52.76
49102;BME280;34913;47.520;19.186;2023-02-21T12:43:59;99727.53;;;15.63;52.09
49102;BME280;34913;47.520;19.186;2023-02-21T12:46:34;99714.47;;;15.60;52.54
49102;BME280;34913;47.520;19.186;2023-02-21T13:00:19;99724.16;;;15.53;52.41
49102;BME280;34913;47.520;19.186;2023-02-21T13:05:39;99720.34;;;15.80;51.59
49102;BME280;34913;47.520;19.186;2023-02-21T13:08:28;99718.53;;;15.97;51.48
49102;BME280;34913;47.520;19.186;2023-02-21T13:11:04;99717.69;;;15.96;51.18
49102;BME280;34913;47.520;19.186;2023-02-21T13:13:32;99711.84;;;15.76;51.86
49102;BME280;34913;47.520;19.186;2023-02-21T13:16:01;99713.19;;;15.80;51.98
49102;BME280;34913;47.520;19.186;2023-02-21T13:18:31;99705.66;;;15.84;51.32
49102;BME280;34913;47.520;19.186;2023-02-21T13:21:04;99706.31;;;15.61;51.70
49102;BME280;34913;47.520;19.186;2023-02-21T13:26:39;99705.84;;;15.07;52.75
49102;BME280;34913;47.520;19.186;2023-02-21T13:29:24;99707.47;;;15.00;52.85
49102;BME280;34913;47.520;19.186;2023-02-21T13:32:10;99714.81;;;14.98;53.27
49102;BME280;34913;47.520;19.186;2023-02-21T13:35:04;99701.25;;;14.84;53.38
49102;BME280;34913;47.520;19.186;2023-02-21T13:37:33;99703.63;;;14.87;54.19
49102;BME280;34913;47.520;19.186;2023-02-21T13:40:05;99697.41;;;14.78;54.59
49102;BME280;34913;47.520;19.186;2023-02-21T13:42:37;99698.81;;;15.06;53.78
49102;BME280;34913;47.520;19.186;2023-02-21T13:55:34;99696.69;;;14.42;55.17
49102;BME280;34913;47.520;19.186;2023-02-21T14:05:24;99704.94;;;14.48;55.21
49102;BME280;34913;47.520;19.186;2023-02-21T14:07:59;99700.16;;;14.34;55.36
49102;BME280;34913;47.520;19.186;2023-02-21T14:12:56;99687.59;;;14.01;56.72
49102;BME280;34913;47.520;19.186;2023-02-21T14:15:35;99700.41;;;13.97;56.13
49102;BME280;34913;47.520;19.186;2023-02-21T14:18:00;99704.38;;;13.93;56.70
49102;BME280;34913;47.520;19.186;2023-02-21T14:20:26;99709.09;;;13.99;56.18
49102;BME280;34913;47.520;19.186;2023-02-21T14:22:57;99711.59;;;14.01;55.96
49102;BME280;34913;47.520;19.186;2023-02-21T14:25:24;99717.56;;;13.94;56.46
49102;BME280;34913;47.520;19.186;2023-02-21T14:27:52;99712.78;;;13.80;57.14
49102;BME280;34913;47.520;19.186;2023-02-21T14:30:28;99716.13;;;13.82;56.96
49102;BME280;34913;47.520;19.186;2023-02-21T14:32:59;99705.00;;;13.87;57.07
49102;BME280;34913;47.520;19.186;2023-02-21T14:35:55;99716.88;;;13.92;57.43
49102;BME280;34913;47.520;19.186;2023-02-21T14:38:24;99720.38;;;13.93;57.33
49102;BME280;34913;47.520;19.186;2023-02-21T14:41:02;99710.22;;;13.96;56.91
49102;BME280;34913;47.520;19.186;2023-02-21T14:49:52;99722.44;;;13.81;56.59
49102;BME280;34913;47.520;19.186;2023-02-21T15:03:43;99712.66;;;13.19;58.39
49102;BME280;34913;47.520;19.186;2023-02-21T15:06:18;99721.75;;;13.26;58.16
49102;BME280;34913;47.520;19.186;2023-02-21T15:08:47;99720.91;;;13.25;57.81
49102;BME280;34913;47.520;19.186;2023-02-21T15:11:26;99720.47;;;13.30;57.80
49102;BME280;34913;47.520;19.186;2023-02-21T15:14:26;99718.50;;;13.32;57.90
49102;BME280;34913;47.520;19.186;2023-02-21T15:17:00;99728.63;;;13.28;57.95
49102;BME280;34913;47.520;19.186;2023-02-21T15:19:34;99724.63;;;13.14;58.25
49102;BME280;34913;47.520;19.186;2023-02-21T15:22:22;99723.84;;;13.04;58.98
49102;BME280;34913;47.520;19.186;2023-02-21T15:27:33;99729.19;;;12.95;59.80
49102;BME280;34913;47.520;19.186;2023-02-21T15:30:14;99726.25;;;12.98;59.70
49102;BME280;34913;47.520;19.186;2023-02-21T15:32:40;99724.03;;;12.93;60.12
49102;BME280;34913;47.520;19.186;2023-02-21T15:35:15;99720.09;;;12.97;59.99
49102;BME280;34913;47.520;19.186;2023-02-21T15:37:44;99731.28;;;13.01;59.95
49102;BME280;34913;47.520;19.186;2023-02-21T15:40:17;99719.25;;;12.97;59.98
49102;BME280;34913;47.520;19.186;2023-02-21T15:42:45;99727.38;;;12.95;59.72
49102;BME280;34913;47.520;19.186;2023-02-21T15:45:18;99712.00;;;12.89;60.22
49102;BME280;34913;47.520;19.186;2023-02-21T15:47:45;99726.16;;;12.90;60.20
49102;BME280;34913;47.520;19.186;2023-02-21T15:50:29;99723.44;;;12.72;60.71
49102;BME280;34913;47.520;19.186;2023-02-21T15:52:55;99725.44;;;12.60;61.19
49102;BME280;34913;47.520;19.186;2023-02-21T16:00:42;99725.75;;;12.47;61.75